createdAt,value
2022-11-29T00:01:21.181Z,91
2022-11-29T00:06:23.342Z,91
2022-11-29T00:11:24.936Z,91
2022-11-29T00:16:26.817Z,91
2022-11-29T00:21:28.080Z,91
2022-11-29T00:26:29.669Z,91
2022-11-29T00:31:31.569Z,91
2022-11-29T00:36:33.164Z,91
2022-11-29T00:41:34.970Z,91
2022-11-29T00:46:36.752Z,92
2022-11-29T00:51:38.676Z,92
2022-11-29T00:56:40.633Z,92
2022-11-29T01:01:41.921Z,91
2022-11-29T01:06:43.643Z,92
2022-11-29T01:11:45.625Z,92
2022-11-29T01:16:47.704Z,91
2022-11-29T01:21:49.103Z,91
2022-11-29T01:26:51.317Z,91
2022-11-29T01:31:53.353Z,91
2022-11-29T01:36:54.589Z,91
2022-11-29T01:41:56.231Z,91
2022-11-29T01:46:58.284Z,92
2022-11-29T01:51:59.994Z,92
2022-11-29T01:57:01.598Z,91
2022-11-29T02:02:02.978Z,92
2022-11-29T02:07:04.398Z,92
2022-11-29T02:12:05.793Z,92
2022-11-29T02:17:07.686Z,92
2022-11-29T02:22:09.499Z,92
2022-11-29T02:27:10.779Z,92
2022-11-29T02:32:12.786Z,92
2022-11-29T02:37:14.674Z,93
2022-11-29T02:42:16.851Z,93
2022-11-29T02:47:19.127Z,92
2022-11-29T02:52:20.333Z,93
2022-11-29T02:57:22.273Z,93
2022-11-29T03:02:24.381Z,93
2022-11-29T03:07:25.547Z,92
2022-11-29T03:12:27.521Z,93
2022-11-29T03:17:28.925Z,93
2022-11-29T03:22:30.681Z,93
2022-11-29T03:27:32.627Z,93
2022-11-29T03:32:34.702Z,93
2022-11-29T03:37:36.391Z,93
2022-11-29T03:42:37.855Z,93
2022-11-29T03:47:39.338Z,94
2022-11-29T03:52:40.721Z,94
2022-11-29T03:57:41.922Z,94
2022-11-29T04:02:43.263Z,94
2022-11-29T04:07:45.070Z,94
2022-11-29T04:12:46.791Z,94
2022-11-29T04:17:48.611Z,94
2022-11-29T04:22:50.164Z,94
2022-11-29T04:27:51.912Z,95
2022-11-29T04:32:53.617Z,95
2022-11-29T04:37:55.244Z,95
2022-11-29T04:42:56.981Z,96
2022-11-29T04:47:58.388Z,96
2022-11-29T04:52:59.870Z,96
2022-11-29T04:58:01.316Z,96
2022-11-29T05:03:02.659Z,97
2022-11-29T05:08:04.455Z,97
2022-11-29T05:13:06.468Z,96
2022-11-29T05:18:08.074Z,96
2022-11-29T05:23:09.698Z,97
2022-11-29T05:28:11.497Z,96
2022-11-29T05:33:12.858Z,96
2022-11-29T05:38:14.569Z,96
2022-11-29T05:43:16.406Z,95
2022-11-29T05:48:17.824Z,95
2022-11-29T05:53:19.606Z,96
2022-11-29T05:58:23.417Z,96
2022-11-29T06:03:22.826Z,96
2022-11-29T06:08:23.958Z,95
2022-11-29T06:13:25.617Z,95
2022-11-29T06:18:27.229Z,95
2022-11-29T06:23:28.925Z,95
2022-11-29T06:28:30.922Z,95
2022-11-29T06:33:33.018Z,95
2022-11-29T06:38:34.927Z,95
2022-11-29T06:43:36.091Z,95
2022-11-29T06:48:38.076Z,95
2022-11-29T06:53:39.829Z,95
2022-11-29T06:58:41.126Z,95
2022-11-29T07:03:42.974Z,95
2022-11-29T07:08:44.503Z,95
2022-11-29T07:13:46.003Z,94
2022-11-29T07:18:47.798Z,94
2022-11-29T07:23:49.132Z,94
2022-11-29T07:28:50.608Z,94
2022-11-29T07:33:52.722Z,93
2022-11-29T07:38:54.134Z,94
2022-11-29T07:43:56.045Z,94
2022-11-29T07:48:57.461Z,94
2022-11-29T07:53:59.211Z,94
2022-11-29T07:59:01.259Z,94
2022-11-29T08:04:03.251Z,95
2022-11-29T08:09:05.105Z,94
2022-11-29T08:14:07.194Z,94
2022-11-29T08:19:08.693Z,94
2022-11-29T08:24:10.477Z,93
2022-11-29T08:29:11.725Z,92
2022-11-29T08:34:14.022Z,91
2022-11-29T08:39:15.582Z,91
2022-11-29T08:44:17.235Z,91
2022-11-29T08:49:18.706Z,90
2022-11-29T08:54:20.431Z,90
2022-11-29T08:59:21.781Z,90
2022-11-29T09:04:23.418Z,90
2022-11-29T09:09:25.241Z,89
2022-11-29T09:14:27.417Z,89
2022-11-29T09:19:29.170Z,90
2022-11-29T09:24:30.999Z,89
2022-11-29T09:29:32.437Z,89
2022-11-29T09:34:33.806Z,90
2022-11-29T09:39:42.251Z,89
2022-11-29T09:44:43.618Z,89
2022-11-29T09:49:45.230Z,89
2022-11-29T09:54:46.919Z,88
2022-11-29T09:59:48.375Z,88
2022-11-29T10:04:49.733Z,87
2022-11-29T10:09:50.992Z,87
2022-11-29T10:14:52.344Z,86
2022-11-29T10:19:54.581Z,86
2022-11-29T10:24:56.165Z,86
2022-11-29T10:29:57.430Z,86
2022-11-29T10:34:58.976Z,86
2022-11-29T10:40:00.322Z,86
2022-11-29T10:45:01.535Z,87
2022-11-29T10:50:03.108Z,86
2022-11-29T10:55:04.714Z,86
2022-11-29T11:00:05.840Z,86
2022-11-29T11:05:07.968Z,86
2022-11-29T11:10:09.580Z,87
2022-11-29T11:15:11.124Z,85
2022-11-29T11:20:13.194Z,86
2022-11-29T11:25:14.761Z,86
2022-11-29T11:30:16.493Z,86
2022-11-29T11:35:18.569Z,86
2022-11-29T11:40:19.640Z,87
2022-11-29T11:45:20.984Z,87
2022-11-29T11:50:22.427Z,86
2022-11-29T11:55:24.042Z,86
2022-11-29T12:00:47.869Z,87
2022-11-29T12:05:27.169Z,86
2022-11-29T12:10:29.164Z,86
2022-11-29T12:15:31.032Z,87
2022-11-29T12:20:32.207Z,86
2022-11-29T12:25:34.184Z,86
2022-11-29T12:30:35.983Z,87
2022-11-29T12:35:37.543Z,88
2022-11-29T12:40:38.585Z,87
2022-11-29T12:45:40.232Z,87
2022-11-29T12:50:41.930Z,88
2022-11-29T12:55:43.242Z,87
2022-11-29T13:00:45.431Z,88
2022-11-29T13:05:46.761Z,88
2022-11-29T13:10:48.417Z,88
2022-11-29T13:20:51.735Z,88
2022-11-29T13:35:56.607Z,88
2022-11-29T13:45:59.923Z,89
2022-11-29T14:26:14.229Z,90
2022-11-29T14:31:16.363Z,89
2022-11-29T14:41:20.097Z,90
2022-11-29T14:46:26.135Z,90
2022-11-29T14:51:23.515Z,90
2022-11-29T14:56:25.657Z,91
2022-11-29T15:01:27.451Z,91
2022-11-29T15:06:29.376Z,92
2022-11-29T15:11:30.632Z,92
2022-11-29T15:16:32.360Z,91
2022-11-29T15:21:33.844Z,91
2022-11-29T15:26:35.010Z,91
2022-11-29T15:31:36.939Z,91
2022-11-29T15:36:38.582Z,92
2022-11-29T15:41:40.162Z,91
2022-11-29T15:46:41.347Z,91
2022-11-29T15:51:43.030Z,91
2022-11-29T15:56:44.330Z,92
2022-11-29T16:01:46.035Z,92
2022-11-29T16:06:47.817Z,92
2022-11-29T16:11:49.011Z,92
2022-11-29T16:16:50.590Z,92
2022-11-29T16:21:51.809Z,91
2022-11-29T16:26:53.763Z,90
2022-11-29T16:31:55.573Z,90
2022-11-29T16:37:00.804Z,89
2022-11-29T16:41:58.802Z,89
2022-11-29T16:47:00.230Z,90
2022-11-29T16:52:02.104Z,92
2022-11-29T16:57:03.408Z,91
2022-11-29T17:02:04.656Z,90
2022-11-29T17:07:06.148Z,90
2022-11-29T17:12:07.824Z,90
2022-11-29T17:17:09.704Z,91
2022-11-29T17:22:11.140Z,90
2022-11-29T17:27:12.571Z,89
2022-11-29T17:32:14.633Z,87
2022-11-29T17:37:16.289Z,87
2022-11-29T17:42:17.731Z,87
2022-11-29T17:47:19.538Z,87
2022-11-29T17:52:21.761Z,88
2022-11-29T17:57:22.930Z,88
2022-11-29T18:02:24.619Z,87
2022-11-29T18:07:25.852Z,87
2022-11-29T18:12:27.457Z,88
2022-11-29T18:17:29.324Z,88
2022-11-29T18:22:30.783Z,89
2022-11-29T18:27:32.611Z,88
2022-11-29T18:32:34.696Z,89
2022-11-29T18:38:06.684Z,90
2022-11-29T18:42:38.738Z,90
2022-11-29T18:47:40.448Z,90
2022-11-29T18:52:42.540Z,90
2022-11-29T18:57:43.757Z,89
2022-11-29T19:02:45.242Z,90
2022-11-29T19:07:46.568Z,90
2022-11-29T19:12:47.982Z,89
2022-11-29T19:17:50.098Z,89
2022-11-29T19:22:54.870Z,90
2022-11-29T19:27:53.099Z,90
2022-11-29T19:32:55.031Z,89
2022-11-29T19:37:57.248Z,89
2022-11-29T19:42:58.423Z,89
2022-11-29T19:48:00.170Z,90
2022-11-29T19:53:01.448Z,90
2022-11-29T19:58:02.971Z,90
2022-11-29T20:03:05.143Z,91
2022-11-29T20:08:06.669Z,90
2022-11-29T20:13:07.902Z,90
2022-11-29T20:18:09.177Z,90
2022-11-29T20:23:10.823Z,90
2022-11-29T20:28:12.255Z,90
2022-11-29T20:33:13.590Z,90
2022-11-29T20:38:15.741Z,90
2022-11-29T20:43:17.154Z,90
2022-11-29T20:48:18.872Z,90
2022-11-29T20:53:20.588Z,90
2022-11-29T20:58:22.651Z,90
2022-11-29T21:03:24.850Z,90
2022-11-29T21:08:27.000Z,90
2022-11-29T21:13:28.299Z,91
2022-11-29T21:18:29.913Z,91
2022-11-29T21:23:31.378Z,91
2022-11-29T21:28:32.972Z,90
2022-11-29T21:33:35.132Z,91
2022-11-29T21:38:36.315Z,90
2022-11-29T21:44:04.749Z,90
2022-11-29T21:48:39.295Z,90
2022-11-29T21:53:41.149Z,90
2022-11-29T21:58:42.443Z,90
2022-11-29T22:03:43.818Z,90
2022-11-29T22:08:45.793Z,90
2022-11-29T22:13:47.161Z,90
2022-11-29T22:18:48.379Z,89
2022-11-29T22:23:50.490Z,89
2022-11-29T22:28:51.979Z,89
2022-11-29T22:33:54.239Z,89
2022-11-29T22:38:56.317Z,89
2022-11-29T22:43:58.078Z,89
2022-11-29T22:48:59.704Z,89
2022-11-29T22:54:01.876Z,89
2022-11-29T22:59:03.735Z,89
2022-11-29T23:14:09.469Z,90
2022-11-29T23:19:10.694Z,90
2022-11-29T23:24:11.921Z,90
2022-11-29T23:29:13.667Z,91
2022-11-29T23:34:15.841Z,91
2022-11-29T23:39:17.099Z,90
2022-11-29T23:44:19.301Z,91
2022-11-29T23:49:20.510Z,90
2022-11-29T23:54:22.047Z,90
2022-11-29T23:59:23.547Z,90
